Portada
METAR-TAF:

METAR-TAF

Aeroports :

Maurici, Maurici

latitud: 20-26S, longitud: 057-40E, altitud: 55 m

Observació

L'informe es va fer fa 50 minuts, a les 00:00 UTC
Vent 7 kt del Nord-Oest
Temperatura 20°C
Humitat 88%
Pressió 1017 hPa
Visibilitat 10 km o més
Escasses núvols a una alçada de 1800 ft

METAR: FIMP 240000Z 32007KT 9999 FEW018 20/18 Q1017

Hora: 04:50 (00:50 UTC)

Pronòstic

L'informe es va fer fa 1 hora i 20 minuts, a les 23:30 UTC
Pronòstic vàlid del 24 a les 00 UTC al 25 a les 06 UTC
Vent 3 kt del Nord/Nord-Oest
Visibilitat 10 km o més
Núvols disperses a una alçada de 1800 ft
Evolucionant progressivament
l' 24 a les 04 UTC al 24 a les 06 UTC
Vent 7 kt del Est/Nord-Est

TAF: FIMP 232330Z 2400/2506 33003KT 9999 SCT018 BECMG 2404/2406 07007KT

Observacions i pronòstics meteorològics de més de 4000 aeroports (METAR i TAF).

Les estacions disponibles són els punts grocs i vermells al mapa.

Posi el ratolí al punt desitjat per veure el nom de l'estació.

Feu clic per veure les observacions i els pronòstics meteorològics.

Per canviar el mapa: feu clic els botons verds amb una creu de color negre per apropar; al botó verd amb un guió per allunyar la imatge; o en les fletxes verdes per a mapes adjacents.


METAR-TAF: